Terminal Aerodrome Forecast
Issued by NWS

Home | Current Version | Previous Version | Text Only | Print | Product List | Glossary On
Versions: 1 2 3 4 5 6 7 8 9 10 11 12 13
000
FTUS43 KOAX 232300
TAFCDR
TAF
KCDR 232335Z 2400/2424 32005KT P6SM VCSH BKN100
     FM240300 32005KT P6SM SKC
     FM242000 19006KT P6SM SKC=

USA.gov is the U.S. government's official web portal to all federal, state and local government web resources and services.